Time;durP1;ratioP1;P1;durP2;ratioP2;P2;SDS_P1;SDS_P2;PMS_P1;PMS_P2;Temp;Humidity;BMP_temperature;BMP_pressure;BME280_temperature;BME280_humidity;BME280_pressure;Samples;Min_cycle;Max_cycle;Signal;HPM_P1;HPM_P2
2021/12/23 00:00:57;;;;;;;34.60;29.77;;;-1.10;53.90;;;;;;4956010;28;20224;-87
2021/12/23 00:03:24;;;;;;;33.38;26.77;;;-1.20;53.90;;;;;;4956803;28;20638;-86
2021/12/23 00:05:50;;;;;;;34.33;29.52;;;-1.20;54.70;;;;;;4954936;28;20528;-86
2021/12/23 00:08:16;;;;;;;35.28;27.92;;;-1.30;54.70;;;;;;4957624;28;20230;-86
2021/12/23 00:10:42;;;;;;;35.40;29.88;;;-1.20;54.30;;;;;;4956175;28;20412;-85
2021/12/23 00:13:08;;;;;;;32.70;29.00;;;-1.20;54.40;;;;;;4942768;28;20592;-86
2021/12/23 00:16:00;;;;;;;37.50;29.67;;;-1.20;54.50;;;;;;4955917;28;20237;-86
2021/12/23 00:23:52;;;;;;;30.17;26.10;;;-1.10;54.40;;;;;;4940755;28;20595;-86
2021/12/23 00:26:18;;;;;;;29.85;26.25;;;-1.10;54.00;;;;;;4955140;28;20757;-86
2021/12/23 00:28:43;;;;;;;33.30;28.23;;;-1.20;53.90;;;;;;4942423;28;20233;-87
2021/12/23 00:31:09;;;;;;;30.90;26.93;;;-1.20;54.10;;;;;;4955247;28;20307;-86
2021/12/23 00:33:36;;;;;;;35.50;28.43;;;-1.20;54.00;;;;;;4955601;28;20337;-84
2021/12/23 00:36:04;;;;;;;35.35;28.95;;;-1.30;55.10;;;;;;4955082;28;20280;-83
2021/12/23 00:38:35;;;;;;;33.13;28.70;;;-1.20;53.90;;;;;;4956462;28;20315;-83
2021/12/23 00:41:03;;;;;;;30.20;26.42;;;-1.20;54.40;;;;;;4940703;28;20225;-84
2021/12/23 00:43:32;;;;;;;31.48;27.55;;;-1.20;54.40;;;;;;4955356;28;20230;-84
2021/12/23 00:45:59;;;;;;;34.60;27.27;;;-1.20;54.70;;;;;;4927798;28;20224;-84
2021/12/23 00:48:25;;;;;;;29.48;25.80;;;-1.10;53.90;;;;;;4935191;28;20286;-83
2021/12/23 00:50:52;;;;;;;34.78;28.15;;;-1.10;54.20;;;;;;4937508;28;20252;-84
2021/12/23 00:53:20;;;;;;;31.05;27.70;;;-1.20;53.90;;;;;;4935433;28;20318;-83
2021/12/23 00:55:49;;;;;;;36.90;28.30;;;-1.10;53.90;;;;;;4922998;28;21036;-84
2021/12/23 00:58:15;;;;;;;36.33;27.98;;;-1.20;54.10;;;;;;4935260;28;20290;-84
2021/12/23 01:00:41;;;;;;;34.63;28.60;;;-1.10;54.40;;;;;;4937644;28;20235;-84
2021/12/23 01:03:07;;;;;;;34.75;28.25;;;-1.20;53.70;;;;;;4934974;28;20479;-83
2021/12/23 01:05:33;;;;;;;33.07;28.17;;;-1.10;53.50;;;;;;4937819;28;20231;-83
2021/12/23 01:07:59;;;;;;;33.90;29.30;;;-1.10;53.40;;;;;;4938947;28;20819;-83
2021/12/23 01:10:25;;;;;;;34.07;28.20;;;-1.00;53.90;;;;;;4939267;28;20233;-84
2021/12/23 01:12:58;;;;;;;33.83;28.50;;;-1.20;53.40;;;;;;4936975;28;21495;-84
2021/12/23 01:20:28;;;;;;;32.90;26.55;;;-1.20;53.70;;;;;;4925537;28;20282;-83
2021/12/23 01:22:56;;;;;;;33.72;27.63;;;-1.10;53.70;;;;;;4939703;28;20699;-84
2021/12/23 01:25:23;;;;;;;32.95;27.02;;;-1.10;53.10;;;;;;4920657;28;20903;-82
2021/12/23 01:27:49;;;;;;;38.22;32.65;;;-1.20;53.40;;;;;;4940672;28;20528;-83
2021/12/23 01:30:17;;;;;;;34.65;28.10;;;-1.30;53.10;;;;;;4934658;28;20614;-84
2021/12/23 01:32:45;;;;;;;34.05;28.60;;;-1.30;53.70;;;;;;4937341;28;20228;-83
2021/12/23 01:35:11;;;;;;;37.38;27.85;;;-1.20;54.00;;;;;;4934974;28;20228;-83
2021/12/23 01:37:38;;;;;;;32.97;28.30;;;-1.30;53.70;;;;;;4936991;28;20293;-84
2021/12/23 01:40:05;;;;;;;35.90;29.52;;;-1.30;53.40;;;;;;4935662;28;20271;-83
2021/12/23 01:42:30;;;;;;;34.38;29.98;;;-1.30;53.30;;;;;;4937874;28;20235;-82
2021/12/23 01:44:56;;;;;;;33.97;27.83;;;-1.30;53.40;;;;;;4935711;28;20224;-82
2021/12/23 01:47:23;;;;;;;34.67;28.93;;;-1.40;53.20;;;;;;4940744;28;20232;-84
2021/12/23 01:49:49;;;;;;;34.88;29.25;;;-1.40;53.80;;;;;;4940130;28;20181;-84
2021/12/23 01:52:15;;;;;;;33.80;28.63;;;-1.30;53.90;;;;;;4937862;28;20319;-82
2021/12/23 01:54:41;;;;;;;33.57;28.53;;;-1.30;53.10;;;;;;4936760;28;20371;-83
2021/12/23 01:57:07;;;;;;;36.83;30.03;;;-1.30;53.30;;;;;;4925327;28;20238;-84
2021/12/23 01:59:36;;;;;;;31.85;26.50;;;-1.40;53.20;;;;;;4937098;28;20235;-83
2021/12/23 02:02:03;;;;;;;32.88;28.05;;;-1.40;53.30;;;;;;4936440;28;20223;-82
2021/12/23 02:04:29;;;;;;;35.28;30.35;;;-1.30;53.80;;;;;;4934428;28;20604;-83
2021/12/23 02:06:54;;;;;;;37.00;30.00;;;-1.50;53.50;;;;;;4936437;28;20230;-83
2021/12/23 02:09:20;;;;;;;32.50;27.97;;;-1.50;53.30;;;;;;4934222;28;20232;-83
2021/12/23 02:11:46;;;;;;;39.80;29.20;;;-1.60;54.20;;;;;;4936150;28;20219;-83
2021/12/23 02:14:12;;;;;;;33.07;29.00;;;-1.50;54.10;;;;;;4919814;28;20310;-83
2021/12/23 02:16:38;;;;;;;37.45;28.88;;;-1.40;53.70;;;;;;4936504;28;20231;-83
2021/12/23 02:19:13;;;;;;;31.70;26.60;;;-1.30;54.10;;;;;;4933417;28;20690;-82
2021/12/23 02:25:00;;;;;;;33.75;27.85;;;-1.30;52.60;;;;;;4939498;28;20285;-83
2021/12/23 02:27:26;;;;;;;33.43;27.90;;;-1.20;52.60;;;;;;4953189;28;20259;-83
2021/12/23 02:29:52;;;;;;;33.53;27.53;;;-1.20;52.70;;;;;;4955325;28;20256;-85
2021/12/23 02:32:18;;;;;;;35.67;28.17;;;-1.30;52.60;;;;;;4955726;28;20288;-83
2021/12/23 02:34:43;;;;;;;33.47;26.90;;;-1.20;52.70;;;;;;4940416;28;20243;-82
2021/12/23 02:37:09;;;;;;;32.70;25.70;;;-1.20;52.40;;;;;;4953174;28;20481;-83
2021/12/23 02:39:35;;;;;;;31.80;26.67;;;-1.20;52.10;;;;;;4955275;28;20306;-84
2021/12/23 02:42:00;;;;;;;30.37;25.73;;;-1.10;51.80;;;;;;4956727;28;20341;-83
2021/12/23 02:44:26;;;;;;;32.43;25.47;;;-1.10;51.50;;;;;;4945934;28;20223;-86
2021/12/23 02:46:52;;;;;;;32.57;26.60;;;-1.20;51.20;;;;;;4956392;28;20771;-84
2021/12/23 02:49:18;;;;;;;29.93;24.33;;;-1.10;51.50;;;;;;4958586;28;20606;-85
2021/12/23 02:51:44;;;;;;;31.75;26.52;;;-1.10;51.50;;;;;;4942134;28;20230;-86
2021/12/23 02:54:10;;;;;;;27.07;24.13;;;-1.00;51.00;;;;;;4943017;28;20223;-85
2021/12/23 02:56:36;;;;;;;27.43;24.10;;;-1.00;50.70;;;;;;4956782;28;20238;-85
2021/12/23 02:59:02;;;;;;;29.27;24.30;;;-1.10;50.40;;;;;;4956740;28;20277;-85
2021/12/23 03:01:28;;;;;;;31.97;26.20;;;-1.10;50.90;;;;;;4956903;28;20513;-86
2021/12/23 03:03:53;;;;;;;32.53;25.40;;;-1.00;50.40;;;;;;4957651;28;20742;-86
2021/12/23 03:06:21;;;;;;;29.40;24.20;;;-1.00;49.90;;;;;;4956121;28;20561;-86
2021/12/23 03:08:56;;;;;;;32.00;26.10;;;-1.00;50.30;;;;;;4959691;28;20459;-86
2021/12/23 03:11:24;;;;;;;29.95;25.05;;;-1.00;50.40;;;;;;4940987;28;20222;-86
2021/12/23 03:13:51;;;;;;;29.33;24.65;;;-1.00;50.10;;;;;;4961039;28;20631;-86
2021/12/23 03:16:23;;;;;;;30.60;25.30;;;-1.00;49.90;;;;;;4959811;28;20277;-85
2021/12/23 03:18:49;;;;;;;29.67;24.27;;;-1.00;49.90;;;;;;4961449;28;20520;-85
2021/12/23 03:21:15;;;;;;;29.27;23.60;;;-1.00;50.30;;;;;;4964803;28;20478;-85
2021/12/23 03:23:40;;;;;;;28.87;25.60;;;-1.00;49.60;;;;;;4957814;28;20270;-86
2021/12/23 03:26:06;;;;;;;30.83;25.90;;;-1.10;50.00;;;;;;4957373;28;20443;-85
2021/12/23 03:28:33;;;;;;;30.83;25.43;;;-1.00;50.10;;;;;;4957469;28;20234;-86
2021/12/23 03:30:59;;;;;;;28.83;24.90;;;-1.00;49.60;;;;;;4956699;28;20643;-86
2021/12/23 03:33:25;;;;;;;28.35;23.83;;;-1.00;49.60;;;;;;4940175;28;20233;-86
2021/12/23 03:35:51;;;;;;;25.63;21.80;;;-1.10;49.60;;;;;;4957339;28;20240;-85
2021/12/23 03:38:19;;;;;;;27.40;24.40;;;-1.10;49.40;;;;;;4954398;28;20769;-86
2021/12/23 03:40:45;;;;;;;26.65;23.33;;;-1.10;49.60;;;;;;4956551;28;20282;-86
2021/12/23 03:43:12;;;;;;;32.05;25.77;;;-1.10;49.90;;;;;;4953414;28;20270;-85
2021/12/23 03:45:38;;;;;;;28.02;23.90;;;-1.10;49.70;;;;;;4955934;28;20317;-85
2021/12/23 03:48:04;;;;;;;27.35;24.27;;;-1.10;49.50;;;;;;4953682;28;20235;-85
2021/12/23 03:50:30;;;;;;;27.40;24.40;;;-1.20;49.50;;;;;;4956097;28;20226;-84
2021/12/23 03:52:56;;;;;;;31.17;25.70;;;-1.10;49.80;;;;;;4953402;28;20451;-86
2021/12/23 03:55:22;;;;;;;29.20;24.10;;;-1.10;49.90;;;;;;4956721;28;20259;-86
2021/12/23 03:57:48;;;;;;;27.97;23.27;;;-1.10;49.40;;;;;;4955062;28;20308;-85
2021/12/23 04:00:17;;;;;;;27.63;24.20;;;-1.10;49.90;;;;;;4954823;28;20224;-86
2021/12/23 04:02:43;;;;;;;28.08;23.75;;;-1.10;49.80;;;;;;4946612;28;20227;-86
2021/12/23 04:05:09;;;;;;;29.20;23.55;;;-1.10;49.90;;;;;;4940231;28;20235;-87
2021/12/23 04:07:36;;;;;;;26.48;22.80;;;-1.00;49.60;;;;;;4938457;28;20816;-86
2021/12/23 04:10:03;;;;;;;27.25;23.95;;;-1.10;48.90;;;;;;4956037;28;20241;-86
2021/12/23 04:12:29;;;;;;;28.70;24.92;;;-1.00;49.40;;;;;;4938197;28;20497;-85
2021/12/23 04:14:55;;;;;;;28.57;23.00;;;-1.00;49.10;;;;;;4955640;28;20234;-86
2021/12/23 04:17:20;;;;;;;26.50;23.30;;;-1.00;48.80;;;;;;4955503;28;20775;-85
2021/12/23 04:19:48;;;;;;;25.70;22.63;;;-1.10;49.60;;;;;;4956098;28;20234;-86
2021/12/23 04:22:14;;;;;;;26.50;22.77;;;-1.00;50.20;;;;;;4954545;28;20462;-86
2021/12/23 04:24:40;;;;;;;27.92;23.95;;;-0.90;49.10;;;;;;4956866;28;20231;-86
2021/12/23 04:27:06;;;;;;;28.10;22.30;;;-0.90;49.00;;;;;;4954152;28;20238;-85
2021/12/23 04:29:33;;;;;;;26.90;24.02;;;-0.90;48.90;;;;;;4956618;28;20230;-86
2021/12/23 04:32:01;;;;;;;27.55;23.10;;;-0.90;48.60;;;;;;4954459;28;20314;-87
2021/12/23 04:34:27;;;;;;;23.45;20.92;;;-0.80;48.90;;;;;;4944710;28;20239;-84
2021/12/23 04:36:53;;;;;;;26.73;22.65;;;-0.90;48.10;;;;;;4954292;28;20314;-85
2021/12/23 04:39:19;;;;;;;25.50;22.25;;;-0.90;48.90;;;;;;4957265;28;20230;-86
2021/12/23 04:41:46;;;;;;;30.27;22.80;;;-0.80;48.30;;;;;;4941211;28;20236;-86
2021/12/23 04:44:12;;;;;;;25.45;22.70;;;-0.90;48.10;;;;;;4956636;28;20481;-86
2021/12/23 04:46:38;;;;;;;25.27;21.30;;;-0.90;49.40;;;;;;4955255;28;20617;-86
2021/12/23 04:49:03;;;;;;;24.15;21.58;;;-0.80;49.00;;;;;;4942405;28;20467;-85
2021/12/23 04:51:29;;;;;;;26.53;22.87;;;-0.80;49.30;;;;;;4955418;28;20728;-85
2021/12/23 04:53:55;;;;;;;27.70;23.30;;;-0.80;48.30;;;;;;4959469;28;20306;-85
2021/12/23 04:56:29;;;;;;;25.03;21.73;;;-0.80;48.80;;;;;;4955156;28;20226;-85
2021/12/23 04:58:55;;;;;;;27.65;23.88;;;-0.80;49.00;;;;;;4958326;28;20457;-85
2021/12/23 05:01:27;;;;;;;24.90;20.47;;;-0.70;48.80;;;;;;4955091;28;20232;-85
2021/12/23 05:03:53;;;;;;;26.23;22.17;;;-0.70;48.50;;;;;;4952644;28;20235;-85
2021/12/23 05:06:18;;;;;;;27.37;23.10;;;-0.70;48.60;;;;;;4955541;28;20588;-87
2021/12/23 05:08:44;;;;;;;26.90;21.70;;;-0.70;48.20;;;;;;4954143;28;20232;-86
2021/12/23 05:11:10;;;;;;;24.87;21.93;;;-0.60;49.10;;;;;;4958719;28;20451;-86
2021/12/23 05:13:36;;;;;;;27.88;23.42;;;-0.60;48.50;;;;;;4958046;28;20225;-85
2021/12/23 05:16:02;;;;;;;25.73;22.07;;;-0.60;47.90;;;;;;4953857;28;20240;-83
2021/12/23 05:18:28;;;;;;;24.93;20.90;;;-0.60;47.60;;;;;;4955151;28;21085;-83
2021/12/23 05:20:53;;;;;;;26.07;22.00;;;-0.60;48.50;;;;;;4953972;28;20893;-83
2021/12/23 05:23:19;;;;;;;27.00;21.67;;;-0.50;48.00;;;;;;4954884;28;20755;-83
2021/12/23 05:25:45;;;;;;;27.03;22.50;;;-0.50;48.10;;;;;;4939130;28;20702;-83
2021/12/23 05:28:13;;;;;;;25.40;22.02;;;-0.50;47.80;;;;;;4955360;28;20370;-84
2021/12/23 05:30:39;;;;;;;27.88;22.95;;;-0.60;48.20;;;;;;4935684;28;20936;-83
2021/12/23 05:33:05;;;;;;;27.95;21.42;;;-0.60;48.20;;;;;;4935470;28;20248;-83
2021/12/23 05:35:32;;;;;;;26.37;21.80;;;-0.50;48.30;;;;;;4939203;28;20229;-85
2021/12/23 05:37:58;;;;;;;25.52;22.30;;;-0.50;48.50;;;;;;4937062;28;20488;-85
2021/12/23 05:40:25;;;;;;;24.77;21.43;;;-0.50;48.50;;;;;;4937208;28;20272;-84
2021/12/23 05:42:52;;;;;;;27.15;21.75;;;-0.40;47.80;;;;;;4934553;28;20793;-81
2021/12/23 05:45:19;;;;;;;25.80;22.38;;;-0.40;48.10;;;;;;4937060;28;20233;-82
2021/12/23 05:47:46;;;;;;;24.55;20.35;;;-0.50;47.70;;;;;;4934178;28;20232;-82
2021/12/23 05:50:14;;;;;;;27.02;22.90;;;-0.50;48.50;;;;;;4936348;28;20234;-83
2021/12/23 05:52:39;;;;;;;27.55;23.20;;;-0.50;48.10;;;;;;4921395;28;20231;-82
2021/12/23 05:55:07;;;;;;;26.87;22.50;;;-0.50;48.80;;;;;;4922954;28;20231;-82
2021/12/23 05:57:33;;;;;;;25.58;21.25;;;-0.50;48.10;;;;;;4934915;28;20471;-83
2021/12/23 06:00:00;;;;;;;24.88;21.08;;;-0.40;48.50;;;;;;4938339;28;20282;-85
2021/12/23 06:02:26;;;;;;;24.98;21.00;;;-0.40;48.20;;;;;;4937248;28;20228;-85
2021/12/23 06:04:51;;;;;;;25.67;21.47;;;-0.40;47.90;;;;;;4936980;28;20579;-81
2021/12/23 06:07:17;;;;;;;23.87;21.23;;;-0.40;48.60;;;;;;4938262;28;20436;-83
2021/12/23 06:09:43;;;;;;;26.40;22.07;;;-0.40;48.60;;;;;;4936469;28;20230;-82
2021/12/23 06:12:11;;;;;;;26.80;21.90;;;-0.40;48.40;;;;;;4932684;28;20244;-83
2021/12/23 06:14:36;;;;;;;25.40;22.50;;;-0.40;48.60;;;;;;4921028;28;20245;-83
2021/12/23 06:17:02;;;;;;;30.23;23.47;;;-0.40;48.60;;;;;;4934250;28;20231;-82
2021/12/23 06:19:28;;;;;;;26.43;23.07;;;-0.40;48.40;;;;;;4935989;28;20235;-82
2021/12/23 06:21:54;;;;;;;27.93;22.10;;;-0.50;47.80;;;;;;4934591;28;20258;-81
2021/12/23 06:24:20;;;;;;;27.37;22.83;;;-0.40;48.70;;;;;;4938803;28;20469;-84
2021/12/23 06:26:45;;;;;;;28.00;22.47;;;-0.40;48.50;;;;;;4940095;28;20458;-84
2021/12/23 06:29:11;;;;;;;27.00;21.60;;;-0.50;48.60;;;;;;4922296;28;20686;-84
2021/12/23 06:31:37;;;;;;;24.37;21.67;;;-0.40;48.60;;;;;;4933017;28;21532;-83
2021/12/23 06:34:03;;;;;;;26.50;22.33;;;-0.30;48.70;;;;;;4920765;28;20246;-84
2021/12/23 06:36:28;;;;;;;28.57;22.80;;;-0.30;48.60;;;;;;4932138;28;20492;-84
2021/12/23 06:38:55;;;;;;;26.93;21.93;;;-0.30;48.20;;;;;;4934076;28;20233;-84
2021/12/23 06:41:21;;;;;;;27.80;21.90;;;-0.20;49.00;;;;;;4931951;28;20236;-84
2021/12/23 06:43:47;;;;;;;23.23;19.80;;;-0.20;47.70;;;;;;4936356;28;20243;-82
2021/12/23 06:46:12;;;;;;;25.93;23.13;;;-0.20;47.90;;;;;;4932661;28;20634;-82
2021/12/23 06:48:38;;;;;;;28.50;23.07;;;-0.20;48.00;;;;;;4936623;28;20808;-81
2021/12/23 06:51:04;;;;;;;26.60;22.07;;;-0.10;48.00;;;;;;4933681;28;20651;-82
2021/12/23 06:53:37;;;;;;;24.30;19.90;;;-0.10;48.30;;;;;;4936616;28;20238;-81
2021/12/23 06:56:03;;;;;;;25.60;21.00;;;-0.10;47.60;;;;;;4935590;28;20467;-84
2021/12/23 06:58:31;;;;;;;26.35;22.15;;;-0.10;47.50;;;;;;4934054;28;20264;-84
2021/12/23 07:00:57;;;;;;;25.75;21.63;;;-0.10;47.90;;;;;;4936013;28;20224;-84
2021/12/23 07:03:30;;;;;;;25.00;21.10;;;-0.10;48.00;;;;;;4919103;28;20247;-84
2021/12/23 07:06:04;;;;;;;26.48;22.25;;;-0.10;47.40;;;;;;4933945;28;20486;-84
2021/12/23 07:08:30;;;;;;;24.30;21.60;;;-0.20;47.70;;;;;;4953371;28;20231;-85
2021/12/23 07:10:56;;;;;;;29.50;24.05;;;-0.20;48.20;;;;;;4953680;28;20272;-84
2021/12/23 07:13:22;;;;;;;28.53;21.90;;;-0.10;48.00;;;;;;4952033;28;20239;-84
2021/12/23 07:15:48;;;;;;;26.07;21.17;;;0.00;47.70;;;;;;4954172;28;20589;-85
2021/12/23 07:18:13;;;;;;;27.10;21.77;;;0.00;48.30;;;;;;4953357;28;20459;-85
2021/12/23 07:20:39;;;;;;;24.17;21.30;;;0.00;48.40;;;;;;4954104;28;20236;-85
2021/12/23 07:23:05;;;;;;;28.50;21.57;;;0.00;48.50;;;;;;4937044;28;20320;-85
2021/12/23 07:25:31;;;;;;;27.07;21.77;;;0.10;48.40;;;;;;4952758;28;20312;-82
2021/12/23 07:27:57;;;;;;;23.73;21.13;;;0.20;48.50;;;;;;4958873;28;20226;-84
2021/12/23 07:30:23;;;;;;;24.83;20.43;;;0.30;47.70;;;;;;4962665;28;20250;-85
2021/12/23 07:32:50;;;;;;;26.63;20.98;;;0.30;47.30;;;;;;4957900;28;20224;-82
2021/12/23 07:35:18;;;;;;;27.48;21.13;;;0.20;47.70;;;;;;4960301;28;20225;-82
2021/12/23 07:37:44;;;;;;;24.65;20.83;;;0.20;48.00;;;;;;4960836;28;20239;-81
2021/12/23 07:40:14;;;;;;;23.35;18.73;;;0.20;47.90;;;;;;4963350;28;20233;-84
2021/12/23 07:42:44;;;;;;;25.20;20.80;;;0.20;48.00;;;;;;4941368;28;20282;-84
2021/12/23 07:45:10;;;;;;;24.20;20.25;;;0.10;47.90;;;;;;4960008;28;20293;-85
2021/12/23 07:47:36;;;;;;;23.73;20.30;;;0.10;47.70;;;;;;4956934;28;20230;-84
2021/12/23 07:50:03;;;;;;;25.58;20.42;;;0.20;48.50;;;;;;4958418;28;20690;-84
2021/12/23 07:52:28;;;;;;;28.20;21.80;;;0.20;48.80;;;;;;4956228;28;20231;-84
2021/12/23 07:54:54;;;;;;;24.07;19.47;;;0.30;48.70;;;;;;4958645;28;20228;-84
2021/12/23 07:57:20;;;;;;;24.13;19.67;;;0.20;48.20;;;;;;4957865;28;20231;-84
2021/12/23 07:59:45;;;;;;;26.83;19.90;;;0.20;48.80;;;;;;4958147;28;20285;-85
2021/12/23 08:02:11;;;;;;;23.90;20.70;;;0.30;49.00;;;;;;4958035;28;20230;-84
2021/12/23 08:04:37;;;;;;;24.00;20.20;;;0.30;49.80;;;;;;4956148;28;20642;-84
2021/12/23 08:07:03;;;;;;;26.00;20.70;;;0.30;48.30;;;;;;4958047;28;20240;-84
2021/12/23 08:09:32;;;;;;;27.25;21.55;;;0.30;49.10;;;;;;4957899;28;20830;-85
2021/12/23 08:12:00;;;;;;;22.80;20.27;;;0.40;49.40;;;;;;4958617;28;20321;-83
2021/12/23 08:14:26;;;;;;;25.15;21.40;;;0.40;49.10;;;;;;4956027;28;20252;-82
2021/12/23 08:16:52;;;;;;;24.70;20.10;;;0.40;49.30;;;;;;4959077;28;20231;-82
2021/12/23 08:19:17;;;;;;;22.73;18.10;;;0.50;49.20;;;;;;4959730;28;20462;-84
2021/12/23 08:21:43;;;;;;;23.07;19.73;;;0.50;48.10;;;;;;4959652;28;20481;-84
2021/12/23 08:24:15;;;;;;;23.90;21.17;;;0.60;49.20;;;;;;4960219;28;21274;-83
2021/12/23 08:26:44;;;;;;;22.48;18.55;;;0.70;48.60;;;;;;4959047;28;20241;-84
2021/12/23 08:29:17;;;;;;;23.10;20.27;;;0.70;47.90;;;;;;4957337;28;20237;-84
2021/12/23 08:31:43;;;;;;;23.30;19.40;;;0.70;47.60;;;;;;4958502;28;20229;-85
2021/12/23 08:34:09;;;;;;;22.52;20.08;;;0.80;47.90;;;;;;4943232;28;20604;-84
2021/12/23 08:36:36;;;;;;;20.03;17.90;;;0.80;47.20;;;;;;4956400;28;20226;-83
2021/12/23 08:39:02;;;;;;;22.48;19.67;;;0.80;47.20;;;;;;4957792;28;20227;-84
2021/12/23 08:41:28;;;;;;;23.85;18.92;;;0.80;47.80;;;;;;4956230;28;20304;-85
2021/12/23 08:43:54;;;;;;;20.90;18.67;;;0.90;47.50;;;;;;4957714;28;20326;-84
2021/12/23 08:46:20;;;;;;;23.07;19.53;;;0.80;47.00;;;;;;4956047;28;21081;-83
2021/12/23 08:48:46;;;;;;;21.38;17.92;;;0.90;46.80;;;;;;4942643;28;20317;-84
2021/12/23 08:51:12;;;;;;;24.02;20.35;;;0.90;47.50;;;;;;4943190;28;20234;-84
2021/12/23 08:53:38;;;;;;;21.90;18.20;;;0.90;47.40;;;;;;4959741;28;21012;-84
2021/12/23 08:56:08;;;;;;;24.40;19.30;;;1.00;47.10;;;;;;4960495;28;20465;-86
2021/12/23 08:58:34;;;;;;;21.85;18.95;;;1.00;47.30;;;;;;4966983;28;20491;-84
2021/12/23 09:01:00;;;;;;;30.60;20.50;;;1.10;47.10;;;;;;4957684;28;20231;-84
2021/12/23 09:03:26;;;;;;;24.02;18.45;;;1.10;47.70;;;;;;4938839;28;20262;-84
2021/12/23 09:05:52;;;;;;;23.50;18.90;;;1.20;47.40;;;;;;4956344;28;20681;-84
2021/12/23 09:08:18;;;;;;;23.60;18.60;;;1.10;47.40;;;;;;4956841;28;20261;-83
2021/12/23 09:10:43;;;;;;;22.53;17.83;;;1.20;47.80;;;;;;4958287;28;20544;-84
2021/12/23 09:13:09;;;;;;;21.43;19.10;;;1.20;47.80;;;;;;4953571;28;20423;-83
2021/12/23 09:15:35;;;;;;;24.53;19.50;;;1.30;47.30;;;;;;4955465;28;20306;-83
2021/12/23 09:18:01;;;;;;;24.10;18.87;;;1.40;47.30;;;;;;4937582;28;20234;-83
2021/12/23 09:20:27;;;;;;;19.37;16.50;;;1.40;47.10;;;;;;4956084;28;20462;-83
2021/12/23 09:22:53;;;;;;;21.50;18.23;;;1.40;47.00;;;;;;4955429;28;20238;-84
2021/12/23 09:25:24;;;;;;;22.30;17.90;;;1.50;47.00;;;;;;4955119;28;20238;-85
2021/12/23 09:28:20;;;;;;;37.57;28.80;;;1.60;47.90;;;;;;4958077;28;20537;-84
2021/12/23 09:33:30;;;;;;;20.95;17.23;;;1.80;47.90;;;;;;4962386;28;20544;-87
2021/12/23 09:35:56;;;;;;;21.37;19.17;;;1.90;47.40;;;;;;4962516;28;20250;-86
2021/12/23 09:38:27;;;;;;;22.25;17.98;;;2.00;47.70;;;;;;4960709;28;20219;-87
2021/12/23 09:40:59;;;;;;;19.50;15.90;;;2.10;48.00;;;;;;4960480;28;20584;-84
2021/12/23 09:43:27;;;;;;;20.53;15.57;;;2.10;47.80;;;;;;4960590;28;20477;-84
2021/12/23 09:45:54;;;;;;;17.13;15.10;;;2.10;48.50;;;;;;4957885;28;20453;-87
2021/12/23 09:48:21;;;;;;;18.07;15.10;;;2.20;47.80;;;;;;4960971;28;20459;-88
2021/12/23 09:50:50;;;;;;;15.30;13.70;;;2.30;47.60;;;;;;4959323;28;20449;-87
2021/12/23 09:53:18;;;;;;;16.47;13.90;;;2.40;47.70;;;;;;4959068;28;20285;-87
2021/12/23 09:55:45;;;;;;;16.43;12.90;;;2.50;47.60;;;;;;4940378;28;20449;-88
2021/12/23 09:58:13;;;;;;;20.90;14.43;;;2.50;48.10;;;;;;4941371;28;20487;-88
2021/12/23 10:00:45;;;;;;;16.67;14.20;;;2.60;48.00;;;;;;4941108;28;21326;-84
2021/12/23 10:03:15;;;;;;;18.33;13.40;;;2.70;47.40;;;;;;4941359;28;20450;-85
2021/12/23 10:05:41;;;;;;;15.10;12.47;;;2.80;48.10;;;;;;4940616;28;20492;-85
2021/12/23 10:08:10;;;;;;;18.93;13.60;;;2.80;48.10;;;;;;4941193;28;20447;-84
2021/12/23 10:11:04;;;;;;;13.83;12.40;;;2.90;47.70;;;;;;4942136;28;21093;-84
2021/12/23 10:33:27;;;;;;;18.43;15.87;;;3.50;48.30;;;;;;4939419;28;20466;-84
2021/12/23 10:38:41;;;;;;;18.10;13.90;;;3.60;48.10;;;;;;4940662;28;20458;-85
2021/12/23 10:41:16;;;;;;;17.27;13.07;;;3.60;48.20;;;;;;4940766;28;20513;-86
2021/12/23 10:43:46;;;;;;;16.00;13.53;;;3.70;47.20;;;;;;4943900;28;20474;-85
2021/12/23 10:46:22;;;;;;;19.33;12.67;;;3.70;48.10;;;;;;4939308;28;20447;-84
2021/12/23 10:48:55;;;;;;;20.03;15.00;;;3.70;48.20;;;;;;4940682;28;20454;-84
2021/12/23 10:51:21;;;;;;;19.93;15.30;;;3.70;47.20;;;;;;4938157;28;21642;-85
2021/12/23 10:54:10;;;;;;;16.07;14.33;;;3.80;47.70;;;;;;4940812;28;20862;-83
2021/12/23 10:59:24;;;;;;;23.13;15.27;;;3.90;47.20;;;;;;4939938;28;20812;-85
2021/12/23 11:02:29;;;;;;;18.73;14.87;;;4.00;47.40;;;;;;4943366;28;20541;-85
2021/12/23 11:07:43;;;;;;;18.50;15.07;;;4.10;47.60;;;;;;4945893;28;20492;-86
2021/12/23 11:10:20;;;;;;;20.07;16.00;;;4.10;47.50;;;;;;4940926;28;20513;-86
2021/12/23 11:38:14;;;;;;;16.97;12.37;;;4.60;46.90;;;;;;4906181;29;20467;-85
2021/12/23 11:45:47;;;;;;;17.50;14.33;;;4.80;47.60;;;;;;4926057;28;20459;-87
2021/12/23 11:48:14;;;;;;;18.07;12.80;;;4.80;48.10;;;;;;4940896;28;20518;-85
2021/12/23 11:51:06;;;;;;;16.30;12.23;;;4.90;48.00;;;;;;4942132;28;20451;-83
2021/12/23 11:53:33;;;;;;;12.33;10.97;;;5.00;47.10;;;;;;4975863;28;20462;-85
2021/12/23 11:56:03;;;;;;;17.37;13.60;;;5.10;47.60;;;;;;4960586;28;20862;-88
2021/12/23 11:58:29;;;;;;;18.53;13.30;;;5.10;47.10;;;;;;4955081;28;20527;-87
2021/12/23 12:01:06;;;;;;;13.20;11.67;;;5.20;47.80;;;;;;4946227;28;20450;-87
2021/12/23 12:03:40;;;;;;;12.50;10.73;;;5.20;47.20;;;;;;4960441;28;20498;-88
2021/12/23 12:06:16;;;;;;;13.80;12.00;;;5.30;47.90;;;;;;4943926;28;20453;-86
2021/12/23 12:08:42;;;;;;;16.97;12.40;;;5.30;47.40;;;;;;4944997;28;20785;-84
2021/12/23 12:11:20;;;;;;;18.53;15.70;;;5.30;47.00;;;;;;4943996;28;20443;-86
2021/12/23 12:13:47;;;;;;;21.80;15.23;;;5.30;45.70;;;;;;4944182;28;20889;-87
2021/12/23 12:16:28;;;;;;;29.43;17.00;;;5.30;46.00;;;;;;4946886;28;20450;-88
2021/12/23 12:18:54;;;;;;;17.40;15.03;;;5.30;45.30;;;;;;4943456;28;20505;-88
2021/12/23 12:21:31;;;;;;;24.93;18.30;;;5.20;45.80;;;;;;4938175;28;20872;-89
2021/12/23 12:24:12;;;;;;;21.20;18.13;;;5.10;45.70;;;;;;4946838;28;21101;-89
2021/12/23 12:27:25;;;;;;;22.17;17.10;;;5.00;45.00;;;;;;4947732;28;21021;-88
2021/12/23 12:30:06;;;;;;;21.97;17.43;;;5.10;44.90;;;;;;4944701;28;20854;-89
2021/12/23 12:32:36;;;;;;;24.20;17.03;;;5.10;46.00;;;;;;4943047;28;20462;-89
2021/12/23 12:35:13;;;;;;;20.37;15.60;;;5.20;45.10;;;;;;4937489;28;20465;-88
2021/12/23 12:37:45;;;;;;;21.80;15.67;;;5.20;45.10;;;;;;4943479;28;20446;-88
2021/12/23 12:40:14;;;;;;;17.63;13.77;;;5.30;46.60;;;;;;4946576;28;20811;-89
2021/12/23 12:42:45;;;;;;;14.67;11.20;;;5.30;47.00;;;;;;4945262;28;20451;-88
2021/12/23 12:45:22;;;;;;;14.67;11.00;;;5.40;46.70;;;;;;4945275;28;20490;-88
2021/12/23 12:47:54;;;;;;;16.37;11.67;;;5.60;46.30;;;;;;4944151;28;20467;-88
2021/12/23 12:50:27;;;;;;;12.70;11.30;;;5.60;46.30;;;;;;4945198;28;20475;-87
2021/12/23 12:53:04;;;;;;;13.73;9.73;;;5.60;46.50;;;;;;4939758;28;20470;-85
2021/12/23 12:55:30;;;;;;;13.83;8.83;;;5.70;45.00;;;;;;4951408;29;20426;-84
2021/12/23 12:58:03;;;;;;;10.93;6.20;;;5.70;44.80;;;;;;4944188;28;20470;-85
2021/12/23 13:00:39;;;;;;;7.87;6.03;;;5.90;44.20;;;;;;4943124;28;20459;-85
2021/12/23 13:03:18;;;;;;;6.50;5.13;;;6.20;42.40;;;;;;4943832;28;20482;-85
2021/12/23 13:05:49;;;;;;;7.50;5.87;;;6.30;43.20;;;;;;4943838;28;20982;-85
2021/12/23 13:08:20;;;;;;;5.87;4.93;;;6.30;44.40;;;;;;4943408;28;20493;-88
2021/12/23 13:10:50;;;;;;;5.67;5.20;;;6.30;42.20;;;;;;4960229;28;20478;-85
2021/12/23 13:13:40;;;;;;;6.80;5.10;;;6.50;41.30;;;;;;4964004;28;20946;-86
2021/12/23 13:16:20;;;;;;;7.63;6.13;;;6.50;41.50;;;;;;4979172;28;20946;-84
2021/12/23 13:18:47;;;;;;;6.17;5.57;;;6.50;41.90;;;;;;4960765;28;20461;-87
2021/12/23 13:21:23;;;;;;;5.53;5.00;;;6.50;42.00;;;;;;4960587;28;20446;-86
2021/12/23 13:23:49;;;;;;;7.10;5.27;;;6.50;41.60;;;;;;4960199;28;20489;-87
2021/12/23 13:26:20;;;;;;;5.30;4.80;;;6.50;41.60;;;;;;4963331;28;20454;-86
2021/12/23 13:28:52;;;;;;;7.60;5.10;;;6.50;42.20;;;;;;4961557;28;20239;-86
2021/12/23 13:31:24;;;;;;;6.93;5.23;;;6.50;42.10;;;;;;4962656;28;20453;-86
2021/12/23 13:33:56;;;;;;;4.90;4.40;;;6.40;42.40;;;;;;4961724;28;21007;-86
2021/12/23 13:36:50;;;;;;;6.13;5.53;;;6.40;42.50;;;;;;4961177;28;20454;-86
2021/12/23 13:39:23;;;;;;;6.10;5.47;;;6.40;42.20;;;;;;4978455;28;20509;-86
2021/12/23 13:41:53;;;;;;;6.60;5.50;;;6.50;42.20;;;;;;4964645;28;21010;-86
2021/12/23 13:44:28;;;;;;;7.37;5.50;;;6.50;42.20;;;;;;4961564;28;20474;-86
2021/12/23 13:47:03;;;;;;;7.47;6.23;;;6.50;41.50;;;;;;4962818;28;20481;-86
2021/12/23 13:49:50;;;;;;;7.07;5.50;;;6.50;42.20;;;;;;4963122;28;20453;-85
2021/12/23 13:52:38;;;;;;;6.37;5.73;;;6.50;41.50;;;;;;4961373;28;20461;-86
2021/12/23 13:55:35;;;;;;;5.83;5.23;;;6.50;42.30;;;;;;4959375;28;20492;-85